createdAt,value
2022-08-27T00:02:02.626Z,98943.28
2022-08-27T00:05:07.276Z,98946.06
2022-08-27T00:08:12.651Z,98949.72
2022-08-27T00:11:17.529Z,98953.53
2022-08-27T00:14:20.894Z,98951.78
2022-08-27T00:17:25.775Z,98946.56
2022-08-27T00:20:29.153Z,98944.53
2022-08-27T00:23:32.495Z,98955.16
2022-08-27T00:26:39.099Z,98947.97
2022-08-27T00:29:44.788Z,98952.88
2022-08-27T00:32:50.062Z,98957.59
2022-08-27T00:35:54.345Z,98952.81
2022-08-27T00:38:57.678Z,98957.50
2022-08-27T00:42:01.429Z,98961.31
2022-08-27T00:45:05.635Z,98962.78
2022-08-27T00:48:12.642Z,98967.56
2022-08-27T00:51:16.157Z,98974.69
2022-08-27T00:54:19.979Z,98974.69
2022-08-27T00:57:23.545Z,98972.63
2022-08-27T01:00:27.152Z,98970.13
2022-08-27T01:03:31.998Z,98963.47
2022-08-27T01:06:37.886Z,98972.63
2022-08-27T01:09:43.005Z,98966.19
2022-08-27T01:12:53.640Z,98958.31
2022-08-27T01:15:59.186Z,98962.06
2022-08-27T01:19:07.574Z,98965.00
2022-08-27T01:22:23.102Z,98962.63
2022-08-27T01:25:30.244Z,98966.16
2022-08-27T01:28:37.626Z,98958.63
2022-08-27T01:31:41.222Z,98966.38
2022-08-27T01:34:44.681Z,98961.22
2022-08-27T01:37:52.455Z,98958.38
2022-08-27T01:40:57.267Z,98959.63
2022-08-27T01:44:01.409Z,98961.56
2022-08-27T01:47:04.930Z,98961.16
2022-08-27T01:50:15.032Z,98958.88
2022-08-27T01:53:20.986Z,98961.53
2022-08-27T01:56:26.065Z,98969.94
2022-08-27T01:59:39.430Z,98967.09
2022-08-27T02:02:44.632Z,98967.38
2022-08-27T02:05:49.170Z,98966.13
2022-08-27T02:08:52.479Z,98959.13
2022-08-27T02:11:57.647Z,98962.38
2022-08-27T02:15:01.710Z,98963.59
2022-08-27T02:18:07.082Z,98963.06
2022-08-27T02:21:10.655Z,98957.56
2022-08-27T02:24:13.950Z,98958.56
2022-08-27T02:27:18.770Z,98952.69
2022-08-27T02:30:24.890Z,98962.16
2022-08-27T02:33:28.183Z,98959.44
2022-08-27T02:36:31.679Z,98955.31
2022-08-27T02:39:35.283Z,98966.91
2022-08-27T02:42:42.498Z,98961.56
2022-08-27T02:45:46.231Z,98969.03
2022-08-27T02:48:49.768Z,98968.41
2022-08-27T02:51:55.133Z,98972.66
2022-08-27T02:54:58.950Z,98962.22
2022-08-27T02:58:04.735Z,98950.34
2022-08-27T03:01:11.142Z,98952.72
2022-08-27T03:04:15.217Z,98953.72
2022-08-27T03:07:19.163Z,98956.06
2022-08-27T03:10:23.655Z,98961.13
2022-08-27T03:13:28.939Z,98949.78
2022-08-27T03:16:35.017Z,98952.06
2022-08-27T03:19:37.362Z,98952.13
2022-08-27T03:22:42.287Z,98954.41
2022-08-27T03:25:47.726Z,98958.88
2022-08-27T03:28:53.285Z,98962.09
2022-08-27T03:31:56.611Z,98969.25
2022-08-27T03:35:00.265Z,98965.72
2022-08-27T03:38:03.686Z,98972.00
2022-08-27T03:41:08.039Z,98974.91
2022-08-27T03:44:16.727Z,98973.09
2022-08-27T03:47:25.320Z,98973.47
2022-08-27T03:50:29.031Z,98984.34
2022-08-27T03:53:32.464Z,98978.56
2022-08-27T03:56:39.426Z,98974.94
2022-08-27T03:59:44.195Z,98988.41
2022-08-27T04:02:47.576Z,98987.47
2022-08-27T04:05:54.450Z,98984.53
2022-08-27T04:08:57.898Z,98994.31
2022-08-27T04:12:01.198Z,98990.91
2022-08-27T04:15:07.849Z,98994.13
2022-08-27T04:18:12.173Z,98995.44
2022-08-27T04:21:16.686Z,99000.75
2022-08-27T04:24:20.050Z,98999.25
2022-08-27T04:27:25.682Z,98998.41
2022-08-27T04:30:31.517Z,99004.19
2022-08-27T04:33:35.058Z,99005.09
2022-08-27T04:36:38.396Z,99007.75
2022-08-27T04:39:41.673Z,99005.41
2022-08-27T04:42:47.484Z,99006.13
2022-08-27T04:45:52.201Z,99007.91
2022-08-27T04:48:57.835Z,99012.56
2022-08-27T04:52:01.215Z,99018.09
2022-08-27T04:55:04.720Z,99016.66
2022-08-27T04:58:08.330Z,99030.56
2022-08-27T05:01:17.381Z,99030.41
2022-08-27T05:04:20.739Z,99024.19
2022-08-27T05:07:24.049Z,99032.75
2022-08-27T05:10:27.443Z,99030.38
2022-08-27T05:13:31.107Z,99025.09
2022-08-27T05:16:37.054Z,99029.22
2022-08-27T05:19:40.441Z,99034.50
2022-08-27T05:22:43.715Z,99036.69
2022-08-27T05:25:49.120Z,99035.00
2022-08-27T05:28:52.761Z,99040.75
2022-08-27T05:31:57.506Z,99039.28
2022-08-27T05:35:00.849Z,99044.38
2022-08-27T05:38:04.146Z,99049.47
2022-08-27T05:41:10.800Z,99047.44
2022-08-27T05:47:44.959Z,99052.41
2022-08-27T05:50:48.439Z,99050.78
2022-08-27T05:53:51.889Z,99055.94
2022-08-27T05:56:55.178Z,99057.13
2022-08-27T06:00:16.079Z,99054.78
2022-08-27T06:03:20.876Z,99053.50
2022-08-27T06:06:24.376Z,99056.16
2022-08-27T06:09:30.056Z,99050.94
2022-08-27T06:12:33.400Z,99055.94
2022-08-27T06:15:36.777Z,99048.06
2022-08-27T06:18:43.369Z,99057.03
2022-08-27T06:22:00.831Z,99059.44
2022-08-27T06:25:10.752Z,99048.47
2022-08-27T06:28:14.130Z,99055.06
2022-08-27T06:31:20.115Z,99054.56
2022-08-27T06:34:24.859Z,99055.97
2022-08-27T06:37:29.329Z,99054.34
2022-08-27T06:40:32.733Z,99060.38
2022-08-27T06:43:37.860Z,99054.47
2022-08-27T06:46:41.700Z,99062.91
2022-08-27T06:49:46.626Z,99063.28
2022-08-27T06:52:49.923Z,99055.50
2022-08-27T06:55:53.603Z,99063.28
2022-08-27T06:58:58.800Z,99066.13
2022-08-27T07:02:02.134Z,99065.25
2022-08-27T07:05:08.281Z,99068.75
2022-08-27T07:08:12.032Z,99065.53
2022-08-27T07:11:16.255Z,99069.09
2022-08-27T07:14:19.627Z,99069.16
2022-08-27T07:17:22.988Z,99065.19
2022-08-27T07:20:27.731Z,99064.03
2022-08-27T07:23:32.013Z,99073.72
2022-08-27T07:26:38.634Z,99067.94
2022-08-27T07:29:41.925Z,99066.03
2022-08-27T07:32:46.171Z,99063.41
2022-08-27T07:35:52.165Z,99058.94
2022-08-27T07:38:59.303Z,99067.13
2022-08-27T07:42:22.532Z,99068.25
2022-08-27T07:45:26.575Z,99064.03
2022-08-27T07:48:31.041Z,99069.66
2022-08-27T07:51:37.829Z,99064.53
2022-08-27T07:54:41.581Z,99061.75
2022-08-27T07:57:48.062Z,99063.34
2022-08-27T08:00:51.414Z,99061.38
2022-08-27T08:03:54.864Z,99059.13
2022-08-27T08:06:59.673Z,99064.88
2022-08-27T08:10:03.419Z,99055.66
2022-08-27T08:13:07.165Z,99064.66
2022-08-27T08:16:10.609Z,99072.06
2022-08-27T08:19:13.951Z,99062.25
2022-08-27T08:22:18.751Z,99063.84
2022-08-27T08:25:22.058Z,99060.88
2022-08-27T08:28:25.789Z,99063.94
2022-08-27T08:31:29.087Z,99061.66
2022-08-27T08:34:32.381Z,99065.75
2022-08-27T08:37:38.022Z,99065.22
2022-08-27T08:40:44.163Z,99059.91
2022-08-27T08:43:51.639Z,99063.63
2022-08-27T08:46:59.780Z,99060.28
2022-08-27T08:50:06.254Z,99061.78
2022-08-27T08:53:21.061Z,99056.94
2022-08-27T08:56:29.739Z,99052.47
2022-08-27T08:59:37.207Z,99056.03
2022-08-27T09:02:40.779Z,99060.16
2022-08-27T09:05:54.904Z,99060.03
2022-08-27T09:09:05.275Z,99057.28
2022-08-27T09:12:15.375Z,99058.34
2022-08-27T09:15:23.249Z,99056.63
2022-08-27T09:18:28.127Z,99062.75
2022-08-27T09:21:42.117Z,99061.94
2022-08-27T09:24:56.863Z,99063.81
2022-08-27T09:28:02.905Z,99062.63
2022-08-27T09:31:08.981Z,99062.63
2022-08-27T09:34:14.642Z,99051.44
2022-08-27T09:37:21.726Z,99048.84
2022-08-27T09:40:32.232Z,99049.88
2022-08-27T09:43:37.026Z,99051.53
2022-08-27T09:46:40.804Z,99045.50
2022-08-27T09:49:44.335Z,99045.66
2022-08-27T09:52:54.135Z,99044.28
2022-08-27T09:56:00.625Z,99046.19
2022-08-27T09:59:07.075Z,99038.53
2022-08-27T10:02:16.929Z,99043.00
2022-08-27T10:05:29.194Z,99033.06
2022-08-27T10:08:42.337Z,99032.13
2022-08-27T10:11:54.472Z,99037.81
2022-08-27T10:15:00.919Z,99025.03
2022-08-27T10:18:11.355Z,99032.84
2022-08-27T10:21:25.558Z,99026.75
2022-08-27T10:24:39.967Z,99036.88
2022-08-27T10:27:54.846Z,99027.53
2022-08-27T10:31:18.027Z,99030.72
2022-08-27T10:34:37.424Z,99025.28
2022-08-27T10:37:52.286Z,99028.06
2022-08-27T10:41:03.586Z,99024.25
2022-08-27T10:44:30.107Z,99024.88
2022-08-27T10:47:53.816Z,99027.19
2022-08-27T10:51:06.869Z,99028.88
2022-08-27T10:54:19.012Z,99024.53
2022-08-27T10:57:54.234Z,99021.66
2022-08-27T11:01:07.056Z,99020.78
2022-08-27T11:04:14.526Z,99018.19
2022-08-27T11:07:24.817Z,99015.47
2022-08-27T11:10:30.988Z,99011.06
2022-08-27T11:13:38.558Z,99014.00
2022-08-27T11:16:48.409Z,99014.25
2022-08-27T11:19:58.357Z,99006.69
2022-08-27T11:23:07.148Z,99019.41
2022-08-27T11:26:13.723Z,99007.25
2022-08-27T11:29:31.636Z,99001.31
2022-08-27T11:32:49.521Z,98998.03
2022-08-27T11:36:20.310Z,98992.59
2022-08-27T11:39:36.090Z,98990.81
2022-08-27T11:42:42.812Z,98995.03
2022-08-27T11:45:57.189Z,98992.59
2022-08-27T11:49:04.066Z,98984.22
2022-08-27T11:52:09.667Z,98984.03
2022-08-27T11:55:25.135Z,98972.00
2022-08-27T11:58:33.176Z,98970.09
2022-08-27T12:01:56.491Z,98973.13
2022-08-27T12:05:26.302Z,98975.44
2022-08-27T12:08:32.907Z,98975.75
2022-08-27T12:11:44.345Z,98966.44
2022-08-27T12:14:55.125Z,98963.78
2022-08-27T12:18:08.690Z,98963.78
2022-08-27T12:21:24.013Z,98966.09
2022-08-27T12:24:44.177Z,98961.56
2022-08-27T12:27:58.695Z,98957.75
2022-08-27T12:31:05.249Z,98959.34
2022-08-27T12:34:16.803Z,98954.59
2022-08-27T12:37:28.971Z,98963.16
2022-08-27T12:40:41.339Z,98962.81
2022-08-27T12:43:44.756Z,98950.19
2022-08-27T12:46:51.237Z,98952.94
2022-08-27T12:49:58.305Z,98948.00
2022-08-27T12:53:24.664Z,98945.81
2022-08-27T12:56:54.588Z,98953.72
2022-08-27T13:00:09.010Z,98946.53
2022-08-27T13:03:24.310Z,98949.44
2022-08-27T13:06:33.182Z,98945.41
2022-08-27T13:09:39.930Z,98942.13
2022-08-27T13:12:44.558Z,98929.44
2022-08-27T13:15:52.366Z,98929.72
2022-08-27T13:18:56.072Z,98934.91
2022-08-27T13:22:01.273Z,98937.72
2022-08-27T13:25:07.553Z,98933.13
2022-08-27T13:28:13.660Z,98934.69
2022-08-27T13:31:18.671Z,98935.13
2022-08-27T13:34:25.641Z,98929.91
2022-08-27T13:37:35.988Z,98939.28
2022-08-27T13:40:54.734Z,98933.31
2022-08-27T13:43:59.790Z,98926.22
2022-08-27T13:47:06.215Z,98932.13
2022-08-27T13:50:18.406Z,98931.09
2022-08-27T13:53:43.101Z,98929.50
2022-08-27T13:57:08.285Z,98926.47
2022-08-27T14:00:17.571Z,98929.63
2022-08-27T14:03:31.839Z,98929.31
2022-08-27T14:06:41.318Z,98930.31
2022-08-27T14:09:54.389Z,98928.84
2022-08-27T14:13:02.050Z,98931.88
2022-08-27T14:16:15.882Z,98927.66
2022-08-27T14:19:36.153Z,98926.81
2022-08-27T14:22:40.028Z,98927.88
2022-08-27T14:25:43.425Z,98925.22
2022-08-27T14:28:48.244Z,98931.38
2022-08-27T14:31:52.310Z,98934.91
2022-08-27T14:34:55.638Z,98938.94
2022-08-27T14:38:01.105Z,98941.00
2022-08-27T14:41:06.701Z,98940.34
2022-08-27T14:44:11.610Z,98939.84
2022-08-27T14:47:16.974Z,98932.78
2022-08-27T14:50:20.544Z,98932.16
2022-08-27T14:53:24.316Z,98940.19
2022-08-27T14:56:28.020Z,98936.53
2022-08-27T14:59:33.239Z,98944.69
2022-08-27T15:02:39.527Z,98947.06
2022-08-27T15:05:43.089Z,98939.75
2022-08-27T15:08:46.737Z,98943.88
2022-08-27T15:11:50.767Z,98937.66
2022-08-27T15:14:56.145Z,98950.84
2022-08-27T15:17:59.614Z,98946.22
2022-08-27T15:21:03.039Z,98951.91
2022-08-27T15:24:12.271Z,98948.78
2022-08-27T15:27:15.660Z,98946.13
2022-08-27T15:30:26.428Z,98943.88
2022-08-27T15:33:29.755Z,98944.66
2022-08-27T15:36:33.086Z,98938.63
2022-08-27T15:39:36.477Z,98941.13
2022-08-27T15:42:40.748Z,98941.28
2022-08-27T15:45:45.669Z,98944.59
2022-08-27T15:48:49.143Z,98938.03
2022-08-27T15:51:52.945Z,98944.56
2022-08-27T15:54:57.991Z,98946.75
2022-08-27T15:58:01.789Z,98947.09
2022-08-27T16:01:11.920Z,98941.16
2022-08-27T16:04:17.486Z,98947.00
2022-08-27T16:07:21.343Z,98937.19
2022-08-27T16:10:24.791Z,98942.13
2022-08-27T16:13:28.438Z,98943.13
2022-08-27T16:16:33.982Z,98940.03
2022-08-27T16:19:38.522Z,98942.78
2022-08-27T16:22:42.078Z,98943.91
2022-08-27T16:25:45.419Z,98942.00
2022-08-27T16:28:48.734Z,98956.50
2022-08-27T16:32:00.571Z,98953.97
2022-08-27T16:35:04.683Z,98950.69
2022-08-27T16:38:08.074Z,98965.81
2022-08-27T16:41:11.791Z,98960.88
2022-08-27T16:44:15.847Z,98966.47
2022-08-27T16:47:20.572Z,98975.28
2022-08-27T16:50:34.863Z,98973.50
2022-08-27T16:53:41.136Z,98981.94
2022-08-27T16:56:46.272Z,98980.31
2022-08-27T16:59:49.806Z,98984.72
2022-08-27T17:02:54.678Z,98981.53
2022-08-27T17:05:58.867Z,98982.91
2022-08-27T17:09:05.014Z,98979.94
2022-08-27T17:12:09.473Z,98988.09
2022-08-27T17:15:14.608Z,98986.34
2022-08-27T17:18:21.080Z,98992.47
2022-08-27T17:21:29.141Z,98994.63
2022-08-27T17:24:33.199Z,98993.94
2022-08-27T17:27:36.475Z,99000.78
2022-08-27T17:30:40.280Z,99004.56
2022-08-27T17:33:47.600Z,99005.47
2022-08-27T17:36:51.712Z,99007.25
2022-08-27T17:39:55.401Z,99008.44
2022-08-27T17:42:58.915Z,99013.47
2022-08-27T17:46:02.373Z,99020.03
2022-08-27T17:49:07.132Z,99017.97
2022-08-27T17:52:16.440Z,99026.63
2022-08-27T17:55:19.869Z,99023.56
2022-08-27T17:58:23.148Z,99043.81
2022-08-27T18:01:29.564Z,99045.31
2022-08-27T18:04:34.373Z,99046.31
2022-08-27T18:07:40.098Z,99049.84
2022-08-27T18:10:46.459Z,99047.84
2022-08-27T18:13:53.807Z,99045.53
2022-08-27T18:16:58.048Z,99041.34
2022-08-27T18:20:03.938Z,99047.28
2022-08-27T18:23:07.613Z,99052.41
2022-08-27T18:26:15.275Z,99053.94
2022-08-27T18:29:19.994Z,99057.78
2022-08-27T18:32:23.382Z,99056.47
2022-08-27T18:35:30.806Z,99059.16
2022-08-27T18:38:34.275Z,99067.03
2022-08-27T18:41:37.708Z,99060.88
2022-08-27T18:44:45.816Z,99058.66
2022-08-27T18:47:50.845Z,99071.25
2022-08-27T18:50:58.857Z,99075.56
2022-08-27T18:54:02.247Z,99086.16
2022-08-27T18:57:05.641Z,99091.03
2022-08-27T19:00:19.018Z,99098.53
2022-08-27T19:03:25.139Z,99095.59
2022-08-27T19:06:29.833Z,99097.47
2022-08-27T19:09:33.274Z,99103.97
2022-08-27T19:12:36.789Z,99105.94
2022-08-27T19:15:44.184Z,99118.44
2022-08-27T19:18:47.914Z,99121.47
2022-08-27T19:21:53.442Z,99132.72
2022-08-27T19:24:57.023Z,99127.03
2022-08-27T19:28:00.402Z,99134.63
2022-08-27T19:31:03.741Z,99137.13
2022-08-27T19:34:09.117Z,99135.44
2022-08-27T19:37:20.342Z,99139.19
2022-08-27T19:40:23.983Z,99142.22
2022-08-27T19:43:27.704Z,99142.16
2022-08-27T19:46:32.968Z,99148.91
2022-08-27T19:49:36.326Z,99139.47
2022-08-27T19:52:41.192Z,99147.06
2022-08-27T19:55:46.093Z,99143.84
2022-08-27T19:58:50.516Z,99138.50
2022-08-27T20:01:56.474Z,99141.25
2022-08-27T20:05:17.059Z,99145.53
2022-08-27T20:08:22.931Z,99147.66
2022-08-27T20:11:26.745Z,99148.69
2022-08-27T20:14:30.222Z,99149.28
2022-08-27T20:17:34.246Z,99150.34
2022-08-27T20:20:38.141Z,99153.56
2022-08-27T20:23:44.134Z,99163.81
2022-08-27T20:26:47.707Z,99167.00
2022-08-27T20:29:51.093Z,99169.16
2022-08-27T20:32:55.077Z,99171.56
2022-08-27T20:36:01.550Z,99168.09
2022-08-27T20:39:06.376Z,99176.66
2022-08-27T20:42:11.030Z,99178.31
2022-08-27T20:45:15.953Z,99182.59
2022-08-27T20:48:19.283Z,99192.00
2022-08-27T20:51:22.623Z,99187.72
2022-08-27T20:54:27.427Z,99181.28
2022-08-27T20:57:30.752Z,99185.31
2022-08-27T21:00:34.617Z,99182.09
2022-08-27T21:03:39.471Z,99184.22
2022-08-27T21:06:42.831Z,99171.34
2022-08-27T21:09:55.899Z,99175.09
2022-08-27T21:13:04.501Z,99179.94
2022-08-27T21:16:09.269Z,99179.13
2022-08-27T21:19:13.460Z,99185.31
2022-08-27T21:22:16.802Z,99180.22
2022-08-27T21:25:24.653Z,99190.66
2022-08-27T21:28:27.961Z,99199.81
2022-08-27T21:31:31.649Z,99199.00
2022-08-27T21:34:35.020Z,99192.81
2022-08-27T21:37:38.440Z,99192.28
2022-08-27T21:40:43.254Z,99190.59
2022-08-27T21:43:46.710Z,99201.06
2022-08-27T21:46:50.059Z,99194.13
2022-08-27T21:49:53.429Z,99190.63
2022-08-27T21:52:56.987Z,99174.78
2022-08-27T21:56:01.750Z,99178.81
2022-08-27T21:59:06.190Z,99175.78
2022-08-27T22:02:23.226Z,99183.97
2022-08-27T22:05:33.190Z,99184.56
2022-08-27T22:08:36.572Z,99183.75
2022-08-27T22:11:41.759Z,99187.06
2022-08-27T22:14:48.014Z,99176.09
2022-08-27T22:17:51.566Z,99179.06
2022-08-27T22:20:55.553Z,99176.78
2022-08-27T22:23:58.916Z,99178.78
2022-08-27T22:27:03.649Z,99180.63
2022-08-27T22:30:11.128Z,99178.22
2022-08-27T22:33:14.945Z,99179.31
2022-08-27T22:36:18.586Z,99179.53
2022-08-27T22:39:21.885Z,99190.59
2022-08-27T22:42:28.937Z,99190.81
2022-08-27T22:45:34.000Z,99188.84
2022-08-27T22:48:37.447Z,99186.81
2022-08-27T22:51:40.845Z,99192.03
2022-08-27T22:54:44.218Z,99189.00
2022-08-27T22:57:49.755Z,99194.72
2022-08-27T23:00:54.821Z,99191.84
2022-08-27T23:03:58.219Z,99192.03
2022-08-27T23:07:01.977Z,99196.06
2022-08-27T23:10:06.936Z,99194.53
2022-08-27T23:13:12.888Z,99191.56
2022-08-27T23:16:16.899Z,99185.16
2022-08-27T23:19:20.419Z,99184.50
2022-08-27T23:22:23.976Z,99186.66
2022-08-27T23:25:45.717Z,99192.59
2022-08-27T23:28:50.471Z,99178.63
2022-08-27T23:31:54.343Z,99194.94
2022-08-27T23:34:58.097Z,99189.84
2022-08-27T23:38:01.398Z,99199.41
2022-08-27T23:41:05.835Z,99201.88
2022-08-27T23:44:10.709Z,99200.28
2022-08-27T23:47:14.087Z,99208.63
2022-08-27T23:50:17.592Z,99195.63
2022-08-27T23:53:21.045Z,99204.25
2022-08-27T23:56:28.094Z,99197.78
2022-08-27T23:59:35.339Z,99209.00
